< Cyclone 201724 2017 Season Cyclone 201727 >
Cyclone 201726 (Ernie)
General InformationTrack Information on Google MapsDetailed Wind InformationList of All Images || ResourceGoogle EarthGE AnimationAtom FeedGeoJSON
Detalied Best Track (Time Zone = UTC)
Year Month Day Hour Lat. Long. Pressure (hPa) Wind (kt) Class Image Chart
2017 4 4 06 -9.8 115.0 1008 20 2 Image --
2017 4 4 12 -10.2 114.3 1008 20 2 Image --
2017 4 4 18 -10.7 113.5 1008 20 2 Image --
2017 4 5 00 -11.1 112.8 1008 20 2 Image --
2017 4 5 06 -11.5 112.1 1006 20 2 Image --
2017 4 5 12 -11.7 111.9 1003 25 2 Image --
2017 4 5 18 -12.4 111.3 1001 30 2 Image --
2017 4 6 00 -12.9 111.2 998 35 3 Image --
2017 4 6 06 -13.2 110.9 995 40 3 Image --
2017 4 6 12 -13.8 110.7 992 45 3 Image --
2017 4 6 18 -14.6 110.4 987 55 4 Image --
2017 4 7 00 -14.8 110.3 973 70 5 Image --
2017 4 7 06 -15.2 110.4 951 95 5 Image --
2017 4 7 12 -15.7 110.4 924 120 5 Image --
2017 4 7 18 -15.8 110.4 927 115 5 Image --
2017 4 8 00 -16.1 110.4 940 105 5 Image --
2017 4 8 06 -16.4 109.9 946 95 5 Image --
2017 4 8 12 -16.5 109.5 955 85 5 Image --
2017 4 8 18 -16.5 108.7 971 75 5 Image --
2017 4 9 00 -16.9 108.4 974 70 5 Image --
2017 4 9 06 -17.3 107.5 977 60 4 Image --
2017 4 9 12 -17.6 106.7 980 55 4 Image --
2017 4 9 18 -17.7 105.3 985 50 4 Image --
2017 4 10 00 -18.1 104.2 996 40 3 Image --
2017 4 10 06 -18.6 103.0 1000 30 2 Image --
2017 4 10 12 -18.9 101.9 1005 25 2 Image --
2017 4 10 18 -19.1 101.0 1005 25 2 Image --
2017 4 11 00 -19.9 100.2 1005 25 2 Image --
2017 4 11 06 -20.8 99.4 1005 25 2 Image --
2017 4 11 12 -21.2 98.8 1006 25 2 Image --
2017 4 11 18 -21.6 98.2 1006 25 2 Image --
< Cyclone 201724 2017 Season Cyclone 201727 >

Help